createdAt,value
2018-09-28T00:01:36.049Z,10.10
2018-09-28T00:04:04.655Z,5.90
2018-09-28T00:06:33.220Z,9.43
2018-09-28T00:09:01.811Z,15.03
2018-09-28T00:11:30.380Z,9.50
2018-09-28T00:13:58.972Z,6.40
2018-09-28T00:16:27.525Z,5.93
2018-09-28T00:18:56.116Z,9.83
2018-09-28T00:21:24.697Z,12.10
2018-09-28T00:23:53.284Z,12.20
2018-09-28T00:26:21.857Z,15.33
2018-09-28T00:28:50.448Z,6.07
2018-09-28T00:31:19.067Z,13.00
2018-09-28T00:33:47.653Z,16.90
2018-09-28T00:36:16.217Z,9.40
2018-09-28T00:38:44.830Z,12.33
2018-09-28T00:41:13.428Z,13.63
2018-09-28T00:43:42.026Z,19.30
2018-09-28T00:46:10.592Z,11.97
2018-09-28T00:48:39.190Z,11.40
2018-09-28T00:51:07.774Z,15.03
2018-09-28T00:53:36.346Z,12.67
2018-09-28T00:56:04.951Z,8.60
2018-09-28T00:58:33.529Z,8.60
2018-09-28T01:01:02.118Z,9.17
2018-09-28T01:03:30.676Z,10.30
2018-09-28T01:05:59.270Z,8.17
2018-09-28T01:08:28.127Z,10.07
2018-09-28T01:10:56.732Z,8.60
2018-09-28T01:13:25.318Z,9.60
2018-09-28T01:15:53.950Z,5.40
2018-09-28T01:18:22.517Z,8.83
2018-09-28T01:20:51.112Z,7.03
2018-09-28T01:23:19.757Z,11.73
2018-09-28T01:25:48.386Z,6.63
2018-09-28T01:28:16.976Z,7.77
2018-09-28T01:30:45.608Z,7.47
2018-09-28T01:33:14.171Z,4.43
2018-09-28T01:35:42.807Z,5.43
2018-09-28T01:38:11.397Z,7.60
2018-09-28T01:40:40.019Z,7.10
2018-09-28T01:43:08.637Z,4.80
2018-09-28T01:45:37.544Z,9.30
2018-09-28T01:48:06.323Z,3.93
2018-09-28T01:50:34.905Z,4.90
2018-09-28T01:53:03.505Z,6.33
2018-09-28T01:55:32.094Z,29.20
2018-09-28T01:58:00.895Z,13.17
2018-09-28T02:00:29.493Z,14.03
2018-09-28T02:02:58.058Z,14.13
2018-09-28T02:05:26.658Z,28.63
2018-09-28T02:07:55.232Z,17.13
2018-09-28T02:10:23.836Z,7.40
2018-09-28T02:12:52.704Z,10.33
2018-09-28T02:15:21.367Z,11.80
2018-09-28T02:17:49.970Z,5.50
2018-09-28T02:20:18.621Z,3.90
2018-09-28T02:22:47.505Z,6.13
2018-09-28T02:25:16.077Z,5.33
2018-09-28T02:27:44.676Z,7.10
2018-09-28T02:30:13.294Z,5.87
2018-09-28T02:32:41.875Z,5.17
2018-09-28T02:35:10.452Z,6.40
2018-09-28T02:37:39.185Z,6.93
2018-09-28T02:40:08.265Z,6.17
2018-09-28T02:42:36.843Z,6.53
2018-09-28T02:45:05.461Z,11.57
2018-09-28T02:47:34.075Z,10.70
2018-09-28T02:50:02.668Z,10.63
2018-09-28T02:52:31.268Z,9.30
2018-09-28T02:54:59.832Z,7.53
2018-09-28T02:57:28.418Z,12.00
2018-09-28T02:59:56.992Z,12.00
2018-09-28T03:02:25.582Z,6.07
2018-09-28T03:04:54.158Z,3.97
2018-09-28T03:07:22.740Z,5.20
2018-09-28T03:09:51.305Z,6.93
2018-09-28T03:12:19.917Z,24.50
2018-09-28T03:14:48.509Z,28.20
2018-09-28T03:17:17.127Z,33.23
2018-09-28T03:19:45.709Z,81.07
2018-09-28T03:22:14.713Z,21.17
2018-09-28T03:24:43.308Z,16.60
2018-09-28T03:27:11.915Z,15.30
2018-09-28T03:29:40.481Z,7.13
2018-09-28T03:32:09.281Z,15.67
2018-09-28T03:34:37.858Z,10.20
2018-09-28T03:37:06.469Z,18.87
2018-09-28T03:39:35.038Z,16.60
2018-09-28T03:42:03.670Z,16.63
2018-09-28T03:44:32.232Z,16.87
2018-09-28T03:47:01.176Z,9.67
2018-09-28T03:49:29.740Z,6.63
2018-09-28T03:51:59.213Z,9.20
2018-09-28T03:54:27.804Z,9.73
2018-09-28T03:56:56.416Z,10.60
2018-09-28T03:59:24.985Z,8.70
2018-09-28T04:01:53.584Z,8.07
2018-09-28T04:04:22.153Z,6.67
2018-09-28T04:06:50.724Z,7.43
2018-09-28T04:09:19.337Z,10.57
2018-09-28T04:11:47.920Z,8.30
2018-09-28T04:14:16.504Z,6.80
2018-09-28T04:16:45.637Z,8.77
2018-09-28T04:19:14.296Z,10.40
2018-09-28T04:21:47.377Z,5.13
2018-09-28T04:24:15.924Z,9.47
2018-09-28T04:26:45.096Z,5.80
2018-09-28T04:29:13.688Z,11.13
2018-09-28T04:31:42.260Z,12.37
2018-09-28T04:34:12.709Z,9.10
2018-09-28T04:36:41.351Z,10.33
2018-09-28T04:39:09.945Z,7.07
2018-09-28T04:41:38.536Z,6.07
2018-09-28T04:44:07.129Z,6.53
2018-09-28T04:46:35.692Z,7.67
2018-09-28T04:49:04.439Z,6.20
2018-09-28T04:51:33.029Z,9.67
2018-09-28T04:54:01.707Z,5.40
2018-09-28T04:56:30.749Z,9.63
2018-09-28T04:58:59.708Z,10.60
2018-09-28T05:01:28.272Z,4.93
2018-09-28T05:03:56.875Z,5.97
2018-09-28T05:06:25.478Z,10.03
2018-09-28T05:08:54.066Z,7.37
2018-09-28T05:11:22.637Z,8.83
2018-09-28T05:13:51.221Z,6.30
2018-09-28T05:16:19.802Z,6.43
2018-09-28T05:18:48.388Z,8.00
2018-09-28T05:21:16.957Z,11.47
2018-09-28T05:23:45.589Z,13.33
2018-09-28T05:26:14.186Z,31.10
2018-09-28T05:28:43.408Z,19.43
2018-09-28T05:31:12.031Z,13.30
2018-09-28T05:33:40.595Z,17.13
2018-09-28T05:36:09.158Z,15.97
2018-09-28T05:38:37.730Z,15.83
2018-09-28T05:41:06.861Z,11.00
2018-09-28T05:43:35.455Z,8.03
2018-09-28T05:46:04.134Z,9.30
2018-09-28T05:48:32.700Z,14.67
2018-09-28T05:51:01.297Z,16.10
2018-09-28T05:53:29.939Z,9.27
2018-09-28T05:55:58.529Z,10.23
2018-09-28T05:58:32.509Z,8.33
2018-09-28T06:01:06.395Z,11.73
2018-09-28T06:03:35.029Z,10.60
2018-09-28T06:06:04.413Z,12.20
2018-09-28T06:08:33.001Z,11.50
2018-09-28T06:11:01.593Z,8.07
2018-09-28T06:13:30.196Z,13.23
2018-09-28T06:15:58.797Z,23.13
2018-09-28T06:18:27.407Z,17.17
2018-09-28T06:20:56.050Z,15.73
2018-09-28T06:23:24.616Z,23.50
2018-09-28T06:25:53.270Z,18.80
2018-09-28T06:28:21.833Z,18.40
2018-09-28T06:30:50.424Z,15.40
2018-09-28T06:33:19.075Z,13.77
2018-09-28T06:35:47.772Z,21.67
2018-09-28T06:38:16.323Z,8.57
2018-09-28T06:40:45.124Z,9.10
2018-09-28T06:43:13.984Z,10.00
2018-09-28T06:45:45.868Z,11.93
2018-09-28T06:48:14.591Z,10.00
2018-09-28T06:50:43.805Z,5.43
2018-09-28T06:53:12.457Z,5.53
2018-09-28T06:55:41.076Z,7.87
2018-09-28T06:58:09.680Z,7.83
2018-09-28T07:00:38.292Z,6.47
2018-09-28T07:03:06.877Z,14.00
2018-09-28T07:05:35.471Z,10.90
2018-09-28T07:08:04.065Z,5.93
2018-09-28T07:10:32.686Z,8.50
2018-09-28T07:13:01.248Z,8.33
2018-09-28T07:15:29.858Z,7.60
2018-09-28T07:17:58.485Z,11.30
2018-09-28T07:20:27.202Z,10.77
2018-09-28T07:22:55.775Z,8.30
2018-09-28T07:25:24.377Z,4.97
2018-09-28T07:27:53.204Z,5.43
2018-09-28T07:30:21.804Z,7.43
2018-09-28T07:32:50.389Z,14.80
2018-09-28T07:35:18.959Z,4.97
2018-09-28T07:37:47.831Z,10.70
2018-09-28T07:40:16.541Z,8.53
2018-09-28T07:42:45.154Z,7.90
2018-09-28T07:45:14.075Z,9.40
2018-09-28T07:47:42.688Z,6.23
2018-09-28T07:50:12.025Z,6.10
2018-09-28T07:52:40.626Z,7.43
2018-09-28T07:55:09.913Z,5.63
2018-09-28T07:57:38.504Z,7.03
2018-09-28T08:00:07.163Z,7.53
2018-09-28T08:02:36.080Z,6.33
2018-09-28T08:05:04.809Z,9.10
2018-09-28T08:07:34.397Z,7.40
2018-09-28T08:10:02.999Z,8.43
2018-09-28T08:12:31.588Z,14.30
2018-09-28T08:15:00.149Z,5.37
2018-09-28T08:17:28.909Z,9.10
2018-09-28T08:19:57.548Z,8.30
2018-09-28T08:22:26.147Z,6.83
2018-09-28T08:24:54.712Z,6.70
2018-09-28T08:27:23.312Z,8.40
2018-09-28T08:29:51.953Z,9.90
2018-09-28T08:32:20.551Z,9.83
2018-09-28T08:34:49.123Z,6.90
2018-09-28T08:37:17.725Z,7.13
2018-09-28T08:39:46.314Z,6.77
2018-09-28T08:42:14.929Z,5.80
2018-09-28T08:44:43.511Z,11.90
2018-09-28T08:47:12.118Z,5.20
2018-09-28T08:49:40.709Z,8.37
2018-09-28T08:52:09.304Z,8.43
2018-09-28T08:54:38.317Z,8.37
2018-09-28T08:57:06.924Z,8.33
2018-09-28T08:59:35.497Z,5.93
2018-09-28T09:02:04.268Z,12.10
2018-09-28T09:04:33.157Z,11.50
2018-09-28T09:07:01.785Z,15.90
2018-09-28T09:09:30.361Z,6.53
2018-09-28T09:11:59.578Z,8.30
2018-09-28T09:14:28.152Z,13.27
2018-09-28T09:16:56.805Z,9.30
2018-09-28T09:19:25.870Z,7.80
2018-09-28T09:21:54.455Z,8.07
2018-09-28T09:24:23.041Z,11.00
2018-09-28T09:26:51.639Z,10.30
2018-09-28T09:29:20.232Z,7.60
2018-09-28T09:31:48.800Z,11.23
2018-09-28T09:34:17.405Z,8.90
2018-09-28T09:36:45.969Z,6.80
2018-09-28T09:39:14.565Z,6.63
2018-09-28T09:41:43.165Z,12.10
2018-09-28T09:44:12.338Z,8.03
2018-09-28T09:46:40.900Z,8.33
2018-09-28T09:49:09.486Z,8.07
2018-09-28T09:51:38.139Z,8.53
2018-09-28T09:54:06.805Z,8.03
2018-09-28T09:56:35.410Z,10.97
2018-09-28T09:59:04.049Z,9.80
2018-09-28T10:01:38.126Z,6.90
2018-09-28T10:04:07.776Z,14.80
2018-09-28T10:06:36.368Z,6.63
2018-09-28T10:09:12.860Z,7.57
2018-09-28T10:11:41.803Z,8.90
2018-09-28T10:14:10.737Z,12.03
2018-09-28T10:16:39.409Z,9.50
2018-09-28T10:19:08.424Z,10.17
2018-09-28T10:21:37.269Z,18.57
2018-09-28T10:24:05.892Z,16.10
2018-09-28T10:26:34.465Z,6.80
2018-09-28T10:29:03.128Z,8.20
2018-09-28T10:31:31.711Z,7.43
2018-09-28T10:34:00.312Z,6.97
2018-09-28T10:36:29.157Z,12.30
2018-09-28T10:38:58.154Z,10.47
2018-09-28T10:41:26.754Z,6.67
2018-09-28T10:43:55.366Z,12.33
2018-09-28T10:46:23.966Z,7.40
2018-09-28T10:48:52.732Z,8.10
2018-09-28T10:51:21.601Z,4.00
2018-09-28T10:53:50.275Z,10.13
2018-09-28T10:56:18.858Z,7.67
2018-09-28T10:58:47.528Z,5.60
2018-09-28T11:01:16.132Z,10.77
2018-09-28T11:03:44.767Z,6.40
2018-09-28T11:06:13.307Z,12.60
2018-09-28T11:08:41.931Z,6.73
2018-09-28T11:11:10.488Z,8.43
2018-09-28T11:13:39.181Z,20.87
2018-09-28T11:16:07.847Z,11.40
2018-09-28T11:18:36.590Z,7.60
2018-09-28T11:21:05.188Z,7.50
2018-09-28T11:23:33.772Z,10.13
2018-09-28T11:26:02.388Z,11.27
2018-09-28T11:28:30.978Z,12.53
2018-09-28T11:30:59.580Z,9.23
2018-09-28T11:33:28.282Z,13.23
2018-09-28T11:35:56.888Z,11.10
2018-09-28T11:38:25.453Z,8.60
2018-09-28T11:40:54.101Z,9.10
2018-09-28T11:43:23.125Z,10.50
2018-09-28T11:45:51.779Z,7.90
2018-09-28T11:48:20.421Z,8.90
2018-09-28T11:50:49.016Z,14.00
2018-09-28T11:53:17.669Z,10.60
2018-09-28T11:55:46.292Z,15.63
2018-09-28T11:58:14.886Z,10.27
2018-09-28T12:00:43.608Z,8.13
2018-09-28T12:03:12.292Z,10.27
2018-09-28T12:05:41.317Z,11.03
2018-09-28T12:08:09.912Z,14.93
2018-09-28T12:10:38.512Z,9.50
2018-09-28T12:13:07.113Z,14.53
2018-09-28T12:15:35.729Z,12.83
2018-09-28T12:18:04.316Z,17.17
2018-09-28T12:20:32.917Z,11.33
2018-09-28T12:23:01.518Z,13.10
2018-09-28T12:25:30.119Z,11.00
2018-09-28T12:27:58.709Z,14.60
2018-09-28T12:30:27.432Z,15.43
2018-09-28T12:32:55.943Z,18.70
2018-09-28T12:35:25.072Z,12.03
2018-09-28T12:37:53.653Z,10.80
2018-09-28T12:40:22.297Z,9.77
2018-09-28T12:42:50.923Z,9.50
2018-09-28T12:45:19.524Z,11.57
2018-09-28T12:47:48.128Z,12.80
2018-09-28T12:50:16.763Z,14.73
2018-09-28T12:52:45.717Z,14.20
2018-09-28T12:55:14.347Z,18.93
2018-09-28T12:57:42.944Z,17.90
2018-09-28T13:00:11.594Z,18.17
2018-09-28T13:02:41.252Z,12.63
2018-09-28T13:05:09.825Z,14.30
2018-09-28T13:07:38.637Z,15.23
2018-09-28T13:10:07.409Z,15.23
2018-09-28T13:12:36.072Z,18.93
2018-09-28T13:15:05.230Z,14.80
2018-09-28T13:17:33.744Z,13.23
2018-09-28T13:20:02.315Z,17.73
2018-09-28T13:22:30.949Z,12.90
2018-09-28T13:24:59.518Z,13.73
2018-09-28T13:27:28.123Z,13.03
2018-09-28T13:29:56.745Z,16.60
2018-09-28T13:32:25.401Z,13.73
2018-09-28T13:34:54.033Z,13.30
2018-09-28T13:37:22.640Z,18.93
2018-09-28T13:39:51.208Z,18.00
2018-09-28T13:42:19.874Z,18.73
2018-09-28T13:44:48.472Z,17.00
2018-09-28T13:47:17.097Z,13.00
2018-09-28T13:49:45.665Z,12.97
2018-09-28T13:52:14.291Z,15.50
2018-09-28T13:54:42.929Z,15.47
2018-09-28T13:57:11.611Z,13.37
2018-09-28T13:59:40.414Z,19.03
2018-09-28T14:02:09.094Z,15.60
2018-09-28T14:04:37.659Z,25.10
2018-09-28T14:07:06.538Z,13.33
2018-09-28T14:09:35.013Z,19.67
2018-09-28T14:12:03.636Z,16.63
2018-09-28T14:14:32.307Z,39.20
2018-09-28T14:17:01.031Z,22.27
2018-09-28T14:19:29.606Z,16.87
2018-09-28T14:21:58.195Z,20.10
2018-09-28T14:24:26.797Z,14.13
2018-09-28T14:26:55.425Z,16.17
2018-09-28T14:29:23.996Z,21.97
2018-09-28T14:31:52.596Z,22.57
2018-09-28T14:34:21.255Z,21.03
2018-09-28T14:36:49.836Z,18.30
2018-09-28T14:39:18.417Z,24.27
2018-09-28T14:41:47.508Z,26.60
2018-09-28T14:44:16.090Z,19.63
2018-09-28T14:46:44.799Z,18.40
2018-09-28T14:49:13.317Z,27.13
2018-09-28T14:51:41.939Z,17.87
2018-09-28T14:54:10.621Z,29.03
2018-09-28T14:56:39.220Z,27.87
2018-09-28T14:59:07.828Z,23.23
2018-09-28T15:01:36.405Z,25.73
2018-09-28T15:04:05.008Z,30.03
2018-09-28T15:06:33.579Z,34.93
2018-09-28T15:09:02.264Z,30.03
2018-09-28T15:11:30.855Z,31.07
2018-09-28T15:13:59.480Z,36.63
2018-09-28T15:16:28.111Z,44.60
2018-09-28T15:18:56.693Z,33.30
2018-09-28T15:21:25.273Z,29.97
2018-09-28T15:23:54.049Z,45.80
2018-09-28T15:26:22.581Z,40.37
2018-09-28T15:28:51.197Z,37.67
2018-09-28T15:31:19.765Z,41.13
2018-09-28T15:33:48.380Z,43.50
2018-09-28T15:36:16.969Z,42.97
2018-09-28T15:38:45.581Z,40.13
2018-09-28T15:41:14.193Z,36.63
2018-09-28T15:43:42.864Z,36.77
2018-09-28T15:46:11.452Z,38.90
2018-09-28T15:48:40.083Z,37.07
2018-09-28T15:51:08.685Z,35.23
2018-09-28T15:53:37.310Z,35.60
2018-09-28T15:56:05.912Z,37.97
2018-09-28T15:58:34.529Z,30.60
2018-09-28T16:01:03.117Z,37.63
2018-09-28T16:03:31.715Z,27.17
2018-09-28T16:06:00.317Z,28.27
2018-09-28T16:08:30.581Z,30.97
2018-09-28T16:10:59.439Z,28.73
2018-09-28T16:13:28.041Z,30.13
2018-09-28T16:15:56.628Z,27.90
2018-09-28T16:18:25.242Z,28.23
2018-09-28T16:20:53.825Z,26.03
2018-09-28T16:23:22.424Z,23.30
2018-09-28T16:25:51.033Z,23.63
2018-09-28T16:28:19.637Z,19.60
2018-09-28T16:30:48.225Z,34.13
2018-09-28T16:33:16.797Z,23.20
2018-09-28T16:35:45.484Z,20.87
2018-09-28T16:38:14.020Z,20.33
2018-09-28T16:40:42.941Z,13.57
2018-09-28T16:43:11.554Z,16.30
2018-09-28T16:45:40.152Z,26.93
2018-09-28T16:48:08.729Z,17.60
2018-09-28T16:50:37.505Z,15.20
2018-09-28T16:53:06.084Z,14.70
2018-09-28T16:55:34.801Z,15.43
2018-09-28T16:58:03.389Z,21.00
2018-09-28T17:00:31.989Z,13.37
2018-09-28T17:03:00.591Z,13.43
2018-09-28T17:05:29.201Z,14.57
2018-09-28T17:07:57.777Z,16.77
2018-09-28T17:10:26.828Z,12.70
2018-09-28T17:12:55.409Z,12.60
2018-09-28T17:15:24.012Z,15.43
2018-09-28T17:17:52.897Z,11.40
2018-09-28T17:20:21.588Z,16.50
2018-09-28T17:22:50.154Z,8.20
2018-09-28T17:25:18.802Z,16.00
2018-09-28T17:27:47.648Z,22.03
2018-09-28T17:30:18.064Z,15.10
2018-09-28T17:32:46.686Z,16.73
2018-09-28T17:35:15.884Z,10.33
2018-09-28T17:37:44.489Z,14.20
2018-09-28T17:40:13.141Z,9.07
2018-09-28T17:42:41.715Z,18.93
2018-09-28T17:45:10.353Z,18.10
2018-09-28T17:47:38.933Z,26.20
2018-09-28T17:50:07.601Z,18.40
2018-09-28T17:52:36.199Z,11.53
2018-09-28T17:55:04.940Z,24.10
2018-09-28T17:57:33.512Z,14.50
2018-09-28T18:00:02.146Z,14.20
2018-09-28T18:02:30.724Z,18.43
2018-09-28T18:04:59.333Z,21.97
2018-09-28T18:07:28.150Z,11.83
2018-09-28T18:09:56.818Z,26.60
2018-09-28T18:12:25.410Z,13.50
2018-09-28T18:14:54.030Z,14.57
2018-09-28T18:17:22.609Z,18.30
2018-09-28T18:19:51.249Z,14.60
2018-09-28T18:22:19.889Z,13.10
2018-09-28T18:24:48.485Z,14.53
2018-09-28T18:27:17.505Z,16.77
2018-09-28T18:29:47.538Z,15.33
2018-09-28T18:32:16.450Z,10.43
2018-09-28T18:34:45.080Z,11.50
2018-09-28T18:37:13.926Z,11.03
2018-09-28T18:39:42.580Z,9.73
2018-09-28T18:42:11.252Z,11.67
2018-09-28T18:44:39.886Z,20.13
2018-09-28T18:47:08.821Z,12.20
2018-09-28T18:49:39.253Z,12.83
2018-09-28T18:52:12.718Z,29.90
2018-09-28T18:54:41.993Z,12.27
2018-09-28T18:57:11.348Z,13.30
2018-09-28T18:59:39.978Z,8.40
2018-09-28T19:02:08.811Z,26.10
2018-09-28T19:04:38.020Z,15.23
2018-09-28T19:07:09.007Z,11.43
2018-09-28T19:09:37.617Z,12.27
2018-09-28T19:12:06.806Z,8.80
2018-09-28T19:14:36.433Z,13.87
2018-09-28T19:17:08.287Z,9.47
2018-09-28T19:19:37.241Z,10.80
2018-09-28T19:22:06.670Z,9.83
2018-09-28T19:24:35.511Z,8.50
2018-09-28T19:27:14.963Z,11.37
2018-09-28T19:29:44.681Z,14.03
2018-09-28T19:32:13.487Z,11.17
2018-09-28T19:34:42.078Z,10.23
2018-09-28T19:37:11.035Z,9.70
2018-09-28T19:39:39.621Z,14.00
2018-09-28T19:42:08.316Z,11.70
2018-09-28T19:44:36.917Z,11.40
2018-09-28T19:47:05.574Z,9.13
2018-09-28T19:49:34.181Z,9.90
2018-09-28T19:52:03.683Z,12.23
2018-09-28T19:54:33.350Z,10.37
2018-09-28T19:57:01.956Z,12.50
2018-09-28T19:59:30.535Z,11.50
2018-09-28T20:01:59.129Z,12.47
2018-09-28T20:04:27.717Z,13.43
2018-09-28T20:06:57.325Z,16.77
2018-09-28T20:09:25.913Z,16.13
2018-09-28T20:11:54.557Z,13.23
2018-09-28T20:14:23.144Z,22.73
2018-09-28T20:16:51.758Z,20.03
2018-09-28T20:19:20.421Z,20.33
2018-09-28T20:21:49.116Z,18.73
2018-09-28T20:24:17.671Z,15.70
2018-09-28T20:26:46.317Z,14.93
2018-09-28T20:29:14.909Z,14.80
2018-09-28T20:31:43.520Z,16.43
2018-09-28T20:34:12.214Z,13.73
2018-09-28T20:36:40.832Z,18.10
2018-09-28T20:39:12.511Z,18.60
2018-09-28T20:41:41.404Z,15.67
2018-09-28T20:44:10.084Z,18.70
2018-09-28T20:46:38.996Z,15.63
2018-09-28T20:49:08.249Z,13.80
2018-09-28T20:51:36.817Z,20.33
2018-09-28T20:54:05.428Z,16.40
2018-09-28T20:56:34.036Z,17.10
2018-09-28T20:59:02.702Z,21.50
2018-09-28T21:01:31.294Z,16.93
2018-09-28T21:03:59.915Z,19.80
2018-09-28T21:06:28.516Z,14.10
2018-09-28T21:08:57.151Z,14.23
2018-09-28T21:11:25.743Z,21.60
2018-09-28T21:13:54.332Z,14.43
2018-09-28T21:16:23.240Z,16.83
2018-09-28T21:18:51.841Z,14.53
2018-09-28T21:21:20.416Z,16.60
2018-09-28T21:23:49.019Z,15.97
2018-09-28T21:26:17.607Z,19.83
2018-09-28T21:28:46.270Z,18.90
2018-09-28T21:31:14.816Z,16.33
2018-09-28T21:33:43.425Z,13.93
2018-09-28T21:36:12.336Z,13.03
2018-09-28T21:38:40.941Z,15.03
2018-09-28T21:41:09.546Z,16.33
2018-09-28T21:43:38.164Z,17.53
2018-09-28T21:46:07.115Z,17.00
2018-09-28T21:48:35.721Z,13.80
2018-09-28T21:51:04.310Z,17.27
2018-09-28T21:53:32.934Z,14.43
2018-09-28T21:56:01.539Z,18.77
2018-09-28T21:58:30.136Z,16.70
2018-09-28T22:00:58.710Z,19.63
2018-09-28T22:03:27.600Z,14.33
2018-09-28T22:05:56.245Z,16.87
2018-09-28T22:08:24.845Z,16.90
2018-09-28T22:10:53.448Z,12.40
2018-09-28T22:13:22.156Z,17.93
2018-09-28T22:15:50.737Z,12.87
2018-09-28T22:18:19.351Z,11.60
2018-09-28T22:20:47.924Z,9.70
2018-09-28T22:23:16.528Z,17.00
2018-09-28T22:25:45.116Z,11.27
2018-09-28T22:28:13.726Z,13.63
2018-09-28T22:30:42.291Z,12.70
2018-09-28T22:33:10.903Z,13.30
2018-09-28T22:35:39.490Z,17.60
2018-09-28T22:38:08.090Z,13.37
2018-09-28T22:40:36.701Z,9.90
2018-09-28T22:43:05.313Z,13.30
2018-09-28T22:45:33.971Z,18.23
2018-09-28T22:48:02.685Z,9.93
2018-09-28T22:50:31.308Z,11.03
2018-09-28T22:52:59.897Z,11.43
2018-09-28T22:55:28.501Z,12.20
2018-09-28T22:57:57.071Z,10.70
2018-09-28T23:00:25.661Z,13.30
2018-09-28T23:02:54.241Z,19.23
2018-09-28T23:05:22.846Z,8.93
2018-09-28T23:07:51.444Z,10.43
2018-09-28T23:10:20.064Z,10.33
2018-09-28T23:12:48.677Z,12.57
2018-09-28T23:15:17.281Z,6.90
2018-09-28T23:17:45.848Z,12.10
2018-09-28T23:20:14.486Z,11.90
2018-09-28T23:22:43.081Z,11.13
2018-09-28T23:25:11.686Z,6.90
2018-09-28T23:27:40.257Z,10.80
2018-09-28T23:30:08.936Z,7.93
2018-09-28T23:32:37.512Z,8.50
2018-09-28T23:35:06.169Z,15.20
2018-09-28T23:37:34.736Z,7.83
2018-09-28T23:40:03.388Z,13.30
2018-09-28T23:42:32.005Z,11.57
2018-09-28T23:45:00.606Z,11.40
2018-09-28T23:47:29.224Z,10.27
2018-09-28T23:49:57.809Z,16.87
2018-09-28T23:52:26.406Z,15.13
2018-09-28T23:54:55.053Z,8.73
2018-09-28T23:57:23.629Z,18.17
2018-09-28T23:59:52.229Z,11.57
